GOOD

Diourbel Airport

Diourbel, Senegal
METAR GOOD 162100Z 00000KT 8000 NSC 26/09 Q1016
Observed Flight Rules
Dec-16 @ 21:00 UTC (3 hours ago) Marginal Visual Flight Rules
Wind Visibility Clouds
Calm 7,998 meters
  • Clear skies
Temperatures Readings
Current 26°C / 79°F
Dewpoint 9°C / 48°F
Humidity 34%
Altimeter 30" Hg
Pressure 1016 hPa
Elevation 9
METAR GOOD 162100Z 00000KT 8000 NSC 26/09 Q1016
Observed Flight Rules
Dec-16 @ 21:00 UTC
(3 hours ago)
MVFR
Wind Visibility
Calm 7,998 meters
Clouds
  • Clear skies
Temperature Dewpoint
26°C / 79°F 9°C / 48°F
Humidity Altimeter Pressure
34% 30" Hg 1016 hPa